Time;durP1;ratioP1;P1;durP2;ratioP2;P2;SDS_P1;SDS_P2;PMS_P1;PMS_P2;Temp;Humidity;BMP_temperature;BMP_pressure;BME280_temperature;BME280_humidity;BME280_pressure;Samples;Min_cycle;Max_cycle;Signal;HPM_P1;HPM_P2
2023/12/23 00:02:08;;;;;;;12.32;4.03;;;19.20;56.80;;;;;;5054268;28;20032;-60
2023/12/23 00:04:33;;;;;;;22.42;4.57;;;19.20;56.90;;;;;;5054315;28;20087;-61
2023/12/23 00:06:59;;;;;;;17.60;4.43;;;19.20;57.00;;;;;;5054224;28;20033;-61
2023/12/23 00:09:25;;;;;;;15.57;4.65;;;19.20;57.00;;;;;;5054005;28;20104;-61
2023/12/23 00:11:51;;;;;;;14.15;4.40;;;19.20;57.00;;;;;;5053879;28;20035;-61
2023/12/23 00:14:16;;;;;;;10.63;3.92;;;19.20;57.00;;;;;;5054130;28;20113;-61
2023/12/23 00:16:42;;;;;;;19.70;4.22;;;19.10;57.00;;;;;;5053954;28;20037;-61
2023/12/23 00:19:09;;;;;;;14.05;3.85;;;19.20;58.40;;;;;;5053792;28;20082;-60
2023/12/23 00:21:35;;;;;;;10.95;3.75;;;19.20;56.40;;;;;;5053506;28;20063;-61
2023/12/23 00:24:01;;;;;;;10.82;4.13;;;19.10;56.90;;;;;;5053953;28;20060;-61
2023/12/23 00:26:27;;;;;;;16.33;4.60;;;19.10;56.90;;;;;;5053936;28;20142;-61
2023/12/23 00:28:53;;;;;;;11.25;3.50;;;19.10;57.50;;;;;;5053246;28;20061;-60
2023/12/23 00:31:19;;;;;;;18.98;4.03;;;19.10;57.60;;;;;;5100891;22;20051;-63
2023/12/23 00:33:47;;;;;;;18.75;4.43;;;19.10;57.30;;;;;;5075608;28;20016;-64
2023/12/23 00:36:13;;;;;;;18.13;4.45;;;19.10;57.80;;;;;;5093984;28;20035;-64
2023/12/23 00:38:39;;;;;;;12.05;3.72;;;19.20;57.60;;;;;;5075846;28;20020;-64
2023/12/23 00:41:05;;;;;;;10.13;3.55;;;19.20;57.80;;;;;;5093419;28;20043;-65
2023/12/23 00:43:31;;;;;;;8.48;3.13;;;19.20;58.60;;;;;;5093458;28;20153;-63
2023/12/23 00:45:56;;;;;;;10.35;3.30;;;19.20;58.30;;;;;;5093698;28;20020;-64
2023/12/23 00:48:22;;;;;;;12.02;3.65;;;19.20;58.30;;;;;;5093607;28;20065;-64
2023/12/23 00:50:48;;;;;;;9.85;3.50;;;19.10;58.00;;;;;;5091916;28;20036;-64
2023/12/23 00:53:15;;;;;;;10.45;3.92;;;19.10;58.00;;;;;;5092389;28;20436;-64
2023/12/23 00:55:42;;;;;;;9.15;3.90;;;19.20;57.90;;;;;;5109321;28;20541;-64
2023/12/23 00:58:07;;;;;;;9.88;3.53;;;19.10;57.70;;;;;;5092233;28;20068;-64
2023/12/23 01:00:33;;;;;;;12.70;3.40;;;19.10;57.30;;;;;;5091736;28;20028;-64
2023/12/23 01:02:59;;;;;;;8.98;3.13;;;19.10;57.40;;;;;;5093317;28;20016;-65
2023/12/23 01:05:25;;;;;;;8.52;3.22;;;19.20;57.50;;;;;;5091974;28;20176;-64
2023/12/23 01:07:50;;;;;;;8.27;3.25;;;19.20;57.40;;;;;;5092046;28;20400;-64
2023/12/23 01:10:16;;;;;;;10.00;3.05;;;19.20;57.40;;;;;;5091804;28;20036;-64
2023/12/23 01:12:42;;;;;;;11.93;3.20;;;19.20;57.40;;;;;;5092028;28;20035;-64
2023/12/23 01:15:08;;;;;;;9.45;2.95;;;19.20;57.20;;;;;;5093250;28;20447;-64
2023/12/23 01:17:34;;;;;;;10.18;3.03;;;19.20;57.30;;;;;;5093290;28;20415;-64
2023/12/23 01:20:00;;;;;;;7.65;3.30;;;19.20;57.00;;;;;;5092442;28;20032;-64
2023/12/23 01:22:26;;;;;;;7.22;2.75;;;19.20;57.00;;;;;;5092940;28;20063;-63
2023/12/23 01:24:52;;;;;;;9.88;3.05;;;19.20;57.10;;;;;;5092913;28;20443;-64
2023/12/23 01:27:17;;;;;;;7.30;3.10;;;19.20;57.10;;;;;;5092822;28;20024;-64
2023/12/23 01:29:43;;;;;;;5.68;2.53;;;19.20;57.10;;;;;;5092341;28;20024;-64
2023/12/23 01:32:09;;;;;;;6.88;2.70;;;19.10;57.10;;;;;;5092600;28;20032;-64
2023/12/23 01:34:35;;;;;;;5.68;2.53;;;19.20;57.00;;;;;;5092715;28;20024;-64
2023/12/23 01:37:01;;;;;;;8.20;2.47;;;19.10;57.00;;;;;;5108605;28;20111;-65
2023/12/23 01:39:28;;;;;;;8.50;2.65;;;19.20;57.00;;;;;;5108304;28;20028;-65
2023/12/23 01:41:53;;;;;;;6.65;2.35;;;19.20;56.80;;;;;;5090154;28;20039;-65
2023/12/23 01:44:19;;;;;;;7.97;2.90;;;19.20;56.90;;;;;;5092510;28;20024;-65
2023/12/23 01:46:46;;;;;;;8.93;2.55;;;19.10;56.80;;;;;;5091269;28;20110;-64
2023/12/23 01:49:12;;;;;;;7.10;2.60;;;19.10;56.70;;;;;;5092512;28;20066;-65
2023/12/23 01:51:38;;;;;;;5.90;2.50;;;19.20;56.70;;;;;;5092101;28;20550;-62
2023/12/23 01:54:05;;;;;;;7.25;3.00;;;19.10;56.70;;;;;;5092398;28;20117;-64
2023/12/23 01:56:32;;;;;;;4.43;2.38;;;19.10;56.70;;;;;;5092560;28;20077;-64
2023/12/23 01:59:00;;;;;;;4.28;2.33;;;19.20;56.80;;;;;;5091090;28;20024;-64
2023/12/23 02:01:26;;;;;;;7.72;2.40;;;19.10;56.50;;;;;;5092262;28;20418;-65
2023/12/23 02:03:52;;;;;;;8.23;2.90;;;19.20;56.70;;;;;;5090990;28;20047;-64
2023/12/23 02:06:18;;;;;;;6.75;2.60;;;19.10;56.70;;;;;;5090967;28;20047;-64
2023/12/23 02:08:45;;;;;;;7.93;2.67;;;19.10;56.60;;;;;;5091110;28;20429;-65
2023/12/23 02:11:28;;;;;;;5.82;2.67;;;19.10;56.60;;;;;;5091767;28;20081;-65
2023/12/23 02:14:10;;;;;;;5.28;2.30;;;19.10;56.40;;;;;;5092035;28;20422;-66
2023/12/23 02:16:37;;;;;;;5.32;2.35;;;19.10;56.60;;;;;;5090892;28;20085;-64
2023/12/23 02:19:03;;;;;;;6.10;2.33;;;19.20;56.70;;;;;;5092084;28;20028;-65
2023/12/23 02:21:29;;;;;;;5.85;2.50;;;19.20;56.50;;;;;;5091627;28;20028;-65
2023/12/23 02:23:54;;;;;;;5.68;2.80;;;19.10;56.50;;;;;;5091857;28;20386;-65
2023/12/23 02:26:23;;;;;;;6.18;2.25;;;19.20;56.60;;;;;;5091846;28;20100;-64
2023/12/23 02:28:52;;;;;;;6.03;2.37;;;19.10;56.40;;;;;;5091823;28;20463;-62
2023/12/23 02:31:21;;;;;;;6.25;2.30;;;19.10;56.30;;;;;;5090164;28;20344;-64
2023/12/23 02:33:48;;;;;;;6.97;2.55;;;19.10;56.40;;;;;;5091896;28;20048;-64
2023/12/23 02:36:13;;;;;;;8.10;2.25;;;19.10;56.20;;;;;;5090489;28;20031;-64
2023/12/23 02:38:39;;;;;;;6.03;2.08;;;19.10;56.40;;;;;;5091694;28;20038;-64
2023/12/23 02:41:05;;;;;;;5.05;2.42;;;19.10;56.30;;;;;;5090138;28;20028;-65
2023/12/23 02:43:31;;;;;;;4.38;2.17;;;19.10;56.20;;;;;;5091681;28;20036;-64
2023/12/23 02:45:57;;;;;;;6.50;2.20;;;19.10;56.20;;;;;;5090575;28;20394;-64
2023/12/23 02:48:23;;;;;;;4.80;2.10;;;19.10;56.20;;;;;;5090728;28;20031;-64
2023/12/23 02:50:48;;;;;;;5.45;2.28;;;19.10;56.20;;;;;;5091386;28;20031;-64
2023/12/23 02:53:14;;;;;;;5.40;2.20;;;19.10;56.10;;;;;;5091429;28;20035;-64
2023/12/23 02:55:40;;;;;;;4.07;2.00;;;19.10;56.10;;;;;;5091753;28;20113;-62
2023/12/23 02:58:06;;;;;;;8.18;2.10;;;19.10;56.10;;;;;;5091480;28;20395;-62
2023/12/23 03:00:31;;;;;;;5.20;2.05;;;19.10;55.80;;;;;;5089933;28;20071;-63
2023/12/23 03:02:57;;;;;;;5.60;2.28;;;19.10;56.00;;;;;;5091597;28;20117;-64
2023/12/23 03:05:23;;;;;;;5.97;2.17;;;19.10;55.90;;;;;;5091408;28;20024;-64
2023/12/23 03:07:49;;;;;;;7.57;1.83;;;19.10;55.90;;;;;;5107278;28;20032;-65
2023/12/23 03:10:15;;;;;;;5.18;2.00;;;19.10;55.90;;;;;;5090838;28;20391;-64
2023/12/23 03:12:41;;;;;;;4.95;2.13;;;19.10;55.70;;;;;;5090131;28;20031;-65
2023/12/23 03:15:07;;;;;;;4.55;1.73;;;19.10;55.70;;;;;;5073428;28;20038;-63
2023/12/23 03:17:34;;;;;;;2.97;1.98;;;19.10;55.70;;;;;;5091377;28;20102;-62
2023/12/23 03:20:00;;;;;;;4.30;2.00;;;19.10;55.60;;;;;;5106671;28;20439;-64
2023/12/23 03:22:26;;;;;;;4.78;2.25;;;19.10;55.50;;;;;;5090091;28;20031;-63
2023/12/23 03:24:52;;;;;;;4.85;2.33;;;19.10;55.60;;;;;;5089985;28;20099;-62
2023/12/23 03:27:20;;;;;;;4.38;2.15;;;19.10;55.50;;;;;;5091456;28;20387;-65
2023/12/23 03:29:46;;;;;;;3.70;2.33;;;19.10;55.50;;;;;;5090813;28;20028;-64
2023/12/23 03:32:12;;;;;;;3.53;1.98;;;19.10;56.00;;;;;;5091585;28;20599;-64
2023/12/23 03:34:39;;;;;;;5.68;2.50;;;19.10;55.40;;;;;;5089842;28;20111;-63
2023/12/23 03:37:05;;;;;;;3.67;2.15;;;19.10;55.40;;;;;;5091048;28;20020;-62
2023/12/23 03:39:31;;;;;;;5.50;2.35;;;19.10;55.30;;;;;;5090716;28;20043;-63
2023/12/23 03:41:56;;;;;;;4.03;2.10;;;19.10;55.40;;;;;;5090894;28;20089;-62
2023/12/23 03:44:22;;;;;;;4.60;2.30;;;19.10;55.50;;;;;;5089829;28;20427;-62
2023/12/23 03:46:48;;;;;;;5.00;2.20;;;19.10;55.40;;;;;;5090992;28;20364;-63
2023/12/23 03:49:14;;;;;;;5.70;2.10;;;19.10;55.40;;;;;;5089758;28;20486;-63
2023/12/23 03:51:39;;;;;;;5.63;2.17;;;19.10;55.30;;;;;;5089399;28;20066;-62
2023/12/23 03:54:05;;;;;;;5.00;2.33;;;19.10;55.40;;;;;;5089570;28;20024;-65
2023/12/23 03:56:31;;;;;;;5.50;2.50;;;19.10;55.10;;;;;;5090787;28;20190;-64
2023/12/23 03:58:58;;;;;;;4.72;2.33;;;19.10;55.20;;;;;;5089611;28;20067;-63
2023/12/23 04:01:24;;;;;;;5.30;2.65;;;19.10;55.20;;;;;;5089410;28;20039;-63
2023/12/23 04:03:50;;;;;;;4.72;2.63;;;19.10;54.90;;;;;;5091497;28;20024;-63
2023/12/23 04:06:16;;;;;;;6.47;2.75;;;19.10;55.20;;;;;;5094472;28;20031;-63
2023/12/23 04:08:42;;;;;;;5.57;2.78;;;19.10;55.10;;;;;;5059770;28;20032;-63
2023/12/23 04:11:08;;;;;;;4.20;2.22;;;19.10;55.10;;;;;;5093970;28;20028;-63
2023/12/23 04:13:34;;;;;;;4.28;2.50;;;19.00;55.10;;;;;;5093114;28;20509;-63
2023/12/23 04:16:04;;;;;;;5.53;2.80;;;19.00;55.20;;;;;;5093155;28;20039;-62
2023/12/23 04:18:30;;;;;;;;;;;19.00;55.00;;;;;;5094837;28;20050;-64
2023/12/23 04:20:56;;;;;;;6.60;2.67;;;19.00;55.10;;;;;;5092712;28;19912;-63
2023/12/23 04:23:22;;;;;;;4.60;2.40;;;19.00;54.80;;;;;;5094317;28;20032;-63
2023/12/23 04:25:47;;;;;;;5.53;2.50;;;19.10;55.10;;;;;;5093034;28;20020;-63
2023/12/23 04:28:15;;;;;;;5.22;2.40;;;19.10;54.70;;;;;;5093043;28;20035;-64
2023/12/23 04:30:42;;;;;;;8.52;2.70;;;19.00;54.90;;;;;;5092401;28;20051;-63
2023/12/23 04:33:08;;;;;;;5.68;2.42;;;19.00;54.90;;;;;;5092808;28;20024;-64
2023/12/23 04:35:36;;;;;;;6.60;2.63;;;19.00;54.90;;;;;;5092751;28;20036;-63
2023/12/23 04:38:02;;;;;;;7.63;2.70;;;19.10;54.70;;;;;;5093031;28;20040;-64
2023/12/23 04:40:28;;;;;;;6.32;2.97;;;19.00;54.80;;;;;;5092210;28;20120;-63
2023/12/23 04:42:54;;;;;;;5.07;2.50;;;19.00;54.60;;;;;;5093815;28;20151;-63
2023/12/23 04:45:20;;;;;;;6.78;2.55;;;19.00;54.80;;;;;;5092805;28;20077;-63
2023/12/23 04:47:46;;;;;;;4.93;2.50;;;19.00;54.80;;;;;;5093705;28;20129;-63
2023/12/23 04:50:12;;;;;;;6.32;2.83;;;19.00;54.70;;;;;;5092115;28;20198;-63
2023/12/23 04:52:38;;;;;;;7.22;2.88;;;19.00;54.80;;;;;;5092714;28;20387;-62
2023/12/23 04:55:05;;;;;;;6.63;3.08;;;19.10;54.70;;;;;;5092334;28;20028;-63
2023/12/23 04:57:33;;;;;;;6.50;2.60;;;19.00;54.60;;;;;;5092570;28;20028;-63
2023/12/23 04:59:59;;;;;;;5.88;2.97;;;19.00;54.60;;;;;;5093051;28;20077;-64
2023/12/23 05:02:24;;;;;;;5.40;2.63;;;19.10;54.60;;;;;;5092291;28;20453;-63
2023/12/23 05:04:51;;;;;;;6.07;2.70;;;19.00;54.40;;;;;;5092201;28;20074;-64
2023/12/23 05:07:17;;;;;;;7.72;2.78;;;19.10;54.60;;;;;;5092243;28;20036;-63
2023/12/23 05:09:43;;;;;;;7.70;3.10;;;19.00;54.60;;;;;;5092928;28;20020;-63
2023/12/23 05:12:09;;;;;;;7.05;2.88;;;19.10;54.60;;;;;;5092043;28;20449;-63
2023/12/23 05:14:34;;;;;;;5.57;2.90;;;19.00;54.50;;;;;;5093089;28;20071;-63
2023/12/23 05:17:00;;;;;;;6.45;3.00;;;19.00;54.50;;;;;;5093227;28;20040;-63
2023/12/23 05:19:26;;;;;;;5.88;2.88;;;19.00;54.50;;;;;;5091742;28;20399;-64
2023/12/23 05:21:52;;;;;;;6.35;2.80;;;19.00;54.50;;;;;;5092705;28;20042;-63
2023/12/23 05:24:18;;;;;;;7.22;3.00;;;19.10;54.50;;;;;;5091799;28;20027;-63
2023/12/23 05:26:43;;;;;;;7.93;3.13;;;19.00;54.40;;;;;;5093157;28;20028;-63
2023/12/23 05:29:09;;;;;;;7.53;3.65;;;19.10;54.30;;;;;;5091762;28;20027;-62
2023/12/23 05:31:35;;;;;;;6.20;3.22;;;19.00;54.20;;;;;;5091265;28;20032;-62
2023/12/23 05:34:01;;;;;;;11.35;3.58;;;19.10;54.30;;;;;;5092862;28;20403;-63
2023/12/23 05:36:27;;;;;;;7.57;3.53;;;19.10;54.10;;;;;;5091649;28;20431;-63
2023/12/23 05:38:52;;;;;;;6.70;3.25;;;19.10;54.20;;;;;;5092741;28;20408;-64
2023/12/23 05:41:18;;;;;;;6.35;2.85;;;19.10;54.20;;;;;;5092282;28;20039;-62
2023/12/23 05:43:44;;;;;;;8.02;3.03;;;19.10;54.00;;;;;;5092642;28;20023;-62
2023/12/23 05:46:10;;;;;;;8.82;3.70;;;19.10;54.20;;;;;;5092676;28;20020;-62
2023/12/23 05:48:35;;;;;;;7.03;3.25;;;19.10;54.70;;;;;;5092589;28;20495;-63
2023/12/23 05:51:01;;;;;;;5.82;3.08;;;19.10;54.20;;;;;;5092168;28;20020;-63
2023/12/23 05:53:27;;;;;;;7.82;3.30;;;19.10;54.00;;;;;;5092425;28;20487;-63
2023/12/23 05:55:53;;;;;;;8.90;3.90;;;19.10;54.00;;;;;;5092469;28;20032;-63
2023/12/23 05:58:19;;;;;;;7.50;3.30;;;19.10;54.10;;;;;;5092448;28;20034;-64
2023/12/23 06:00:45;;;;;;;7.53;3.10;;;19.10;54.20;;;;;;5091853;28;20032;-63
2023/12/23 06:03:10;;;;;;;9.38;3.30;;;19.10;54.20;;;;;;5107996;28;20529;-63
2023/12/23 06:05:36;;;;;;;6.50;3.30;;;19.10;54.50;;;;;;5092357;28;20028;-63
2023/12/23 06:08:04;;;;;;;7.90;3.38;;;19.10;53.90;;;;;;5092389;28;20024;-63
2023/12/23 06:10:29;;;;;;;7.30;3.42;;;19.20;54.10;;;;;;5091929;28;20032;-63
2023/12/23 06:12:55;;;;;;;8.35;3.33;;;19.10;53.80;;;;;;5092260;28;20035;-63
2023/12/23 06:15:21;;;;;;;9.32;3.20;;;19.10;54.00;;;;;;5092169;28;20116;-62
2023/12/23 06:17:48;;;;;;;6.07;3.25;;;19.10;54.30;;;;;;5092036;28;20071;-62
2023/12/23 06:20:14;;;;;;;7.22;2.95;;;19.10;53.80;;;;;;5091862;28;20032;-63
2023/12/23 06:22:40;;;;;;;9.95;3.08;;;19.10;53.80;;;;;;5092151;28;20051;-63
2023/12/23 06:25:06;;;;;;;8.25;3.70;;;19.10;53.80;;;;;;5090818;28;20487;-63
2023/12/23 06:27:32;;;;;;;7.97;3.33;;;19.10;53.90;;;;;;5091632;28;20487;-62
2023/12/23 06:29:57;;;;;;;10.38;3.35;;;19.10;54.50;;;;;;5091452;28;20053;-63
2023/12/23 06:32:23;;;;;;;9.93;3.85;;;19.10;54.40;;;;;;5090945;22;20086;-59
2023/12/23 06:34:49;;;;;;;10.93;3.15;;;19.10;54.90;;;;;;5071422;28;20111;-59
2023/12/23 06:37:15;;;;;;;10.73;3.05;;;19.10;56.10;;;;;;5071651;28;20059;-57
2023/12/23 06:39:40;;;;;;;7.88;2.38;;;19.10;52.80;;;;;;5071465;28;20527;-60
2023/12/23 06:42:06;;;;;;;8.02;2.63;;;18.90;49.30;;;;;;5055670;28;20032;-58
2023/12/23 06:44:32;;;;;;;7.10;2.67;;;18.70;47.30;;;;;;5033873;28;20025;-59
2023/12/23 06:46:58;;;;;;;15.25;2.97;;;18.70;47.40;;;;;;5033665;28;20522;-60
2023/12/23 06:49:24;;;;;;;14.35;3.08;;;18.70;49.20;;;;;;5051404;28;20025;-54
2023/12/23 06:51:50;;;;;;;15.05;2.90;;;18.80;49.30;;;;;;5051410;28;20087;-59
2023/12/23 06:54:16;;;;;;;13.25;2.83;;;18.90;50.20;;;;;;5051335;28;20078;-56
2023/12/23 06:56:41;;;;;;;18.95;3.28;;;18.90;50.60;;;;;;5051344;28;20025;-58
2023/12/23 06:59:09;;;;;;;14.02;3.28;;;18.90;50.70;;;;;;5051009;28;20029;-59
2023/12/23 07:01:37;;;;;;;23.75;6.85;;;19.00;51.60;;;;;;5050804;28;20055;-56
2023/12/23 07:04:03;;;;;;;24.60;6.95;;;19.00;51.40;;;;;;5033487;28;20029;-59
2023/12/23 07:06:29;;;;;;;25.05;6.88;;;19.10;52.90;;;;;;5051277;28;20021;-60
2023/12/23 07:08:55;;;;;;;26.88;6.35;;;19.20;54.10;;;;;;5051462;28;20021;-60
2023/12/23 07:11:21;;;;;;;24.67;6.82;;;19.20;54.40;;;;;;5050905;28;20078;-60
2023/12/23 07:13:46;;;;;;;24.92;5.95;;;19.30;55.60;;;;;;5050628;28;20036;-59
2023/12/23 07:16:12;;;;;;;24.30;6.68;;;19.30;56.00;;;;;;5051138;28;20134;-60
2023/12/23 07:18:38;;;;;;;22.60;5.88;;;19.30;55.20;;;;;;5051023;28;20152;-60
2023/12/23 07:21:04;;;;;;;23.77;6.22;;;19.30;54.90;;;;;;5050554;28;20078;-60
2023/12/23 07:23:29;;;;;;;22.02;6.47;;;19.30;56.20;;;;;;5050982;28;20413;-60
2023/12/23 07:25:55;;;;;;;27.02;6.65;;;19.30;56.20;;;;;;5051030;28;20025;-60
2023/12/23 07:28:21;;;;;;;27.40;5.72;;;19.30;55.60;;;;;;5051177;28;20512;-59
2023/12/23 07:30:47;;;;;;;24.00;6.82;;;19.30;55.70;;;;;;5050583;28;20056;-60
2023/12/23 07:33:13;;;;;;;29.75;6.50;;;19.30;55.80;;;;;;5033329;28;20041;-60
2023/12/23 07:35:39;;;;;;;33.20;8.48;;;19.30;55.70;;;;;;5050913;28;20411;-60
2023/12/23 07:38:05;;;;;;;38.28;8.02;;;19.30;55.90;;;;;;5050978;28;20109;-59
2023/12/23 07:40:31;;;;;;;35.03;7.72;;;19.30;56.10;;;;;;5035998;28;20123;-59
2023/12/23 07:42:58;;;;;;;30.13;7.22;;;19.40;56.30;;;;;;5054740;28;20033;-58
2023/12/23 07:45:24;;;;;;;45.05;8.20;;;19.40;56.10;;;;;;5054544;28;20032;-60
2023/12/23 07:47:49;;;;;;;40.88;7.13;;;19.40;57.10;;;;;;5054529;28;20025;-59
2023/12/23 07:50:15;;;;;;;38.97;7.50;;;19.40;55.70;;;;;;5053727;28;20044;-59
2023/12/23 07:52:41;;;;;;;30.15;7.07;;;19.40;56.30;;;;;;5054542;28;20017;-59
2023/12/23 07:55:07;;;;;;;29.00;6.60;;;19.40;56.80;;;;;;5054400;28;20448;-60
2023/12/23 07:57:33;;;;;;;29.58;7.45;;;19.40;56.20;;;;;;5053939;28;20041;-60
2023/12/23 07:59:59;;;;;;;30.77;6.25;;;19.30;55.70;;;;;;5054102;28;20070;-60
2023/12/23 08:02:24;;;;;;;27.60;6.18;;;19.30;55.60;;;;;;5054250;28;20178;-59
2023/12/23 08:04:50;;;;;;;26.95;6.28;;;19.30;55.70;;;;;;5054307;28;20029;-59
2023/12/23 08:07:16;;;;;;;26.08;5.68;;;19.30;56.30;;;;;;5054224;28;20055;-59
2023/12/23 08:09:42;;;;;;;27.60;6.55;;;19.20;55.70;;;;;;5054115;28;20025;-59
2023/12/23 08:12:08;;;;;;;29.58;6.47;;;19.30;56.00;;;;;;5054110;28;20369;-58
2023/12/23 08:14:34;;;;;;;27.90;6.15;;;19.20;55.80;;;;;;5053889;28;20500;-60
2023/12/23 08:17:00;;;;;;;29.75;6.72;;;19.20;55.80;;;;;;5053481;28;20060;-60
2023/12/23 08:19:26;;;;;;;23.80;6.15;;;19.20;54.70;;;;;;5053839;28;20028;-60
2023/12/23 08:21:51;;;;;;;25.75;5.80;;;19.20;55.30;;;;;;5053598;28;20029;-57
2023/12/23 08:24:17;;;;;;;28.30;6.28;;;19.20;55.40;;;;;;5053981;28;20036;-60
2023/12/23 08:26:44;;;;;;;28.77;6.60;;;19.20;56.00;;;;;;5053745;28;20032;-60
2023/12/23 08:29:10;;;;;;;24.15;6.13;;;19.20;55.90;;;;;;5053616;28;20108;-58
2023/12/23 08:31:43;;;;;;;24.52;5.85;;;19.20;56.20;;;;;;5053249;28;20029;-58
2023/12/23 08:34:09;;;;;;;30.88;6.78;;;19.20;57.30;;;;;;5053647;28;20025;-60
2023/12/23 08:36:35;;;;;;;23.25;6.40;;;19.20;57.30;;;;;;5053661;28;20090;-60
2023/12/23 08:39:01;;;;;;;26.85;6.38;;;19.20;57.30;;;;;;5053669;28;20052;-59
2023/12/23 08:41:27;;;;;;;23.40;6.63;;;19.30;57.80;;;;;;5053119;28;20099;-58
2023/12/23 08:43:52;;;;;;;31.50;6.40;;;19.30;58.00;;;;;;5035663;28;20024;-57
2023/12/23 08:46:18;;;;;;;22.42;6.30;;;19.20;58.10;;;;;;5053444;28;20064;-59
2023/12/23 08:48:44;;;;;;;22.08;6.43;;;19.30;57.80;;;;;;5053379;28;20067;-58
2023/12/23 08:51:10;;;;;;;19.33;5.90;;;19.30;58.10;;;;;;5052746;28;20036;-58
2023/12/23 08:53:36;;;;;;;21.40;5.80;;;19.30;58.00;;;;;;5053494;28;20029;-57
2023/12/23 08:56:03;;;;;;;17.10;5.38;;;19.30;57.80;;;;;;5035580;28;20028;-60
2023/12/23 08:58:30;;;;;;;20.15;6.00;;;19.30;59.30;;;;;;5035583;28;20029;-58
2023/12/23 09:00:57;;;;;;;23.40;5.35;;;19.40;60.50;;;;;;5052686;28;20512;-54
2023/12/23 09:03:23;;;;;;;20.73;6.03;;;19.40;61.80;;;;;;5053163;28;20029;-60
2023/12/23 09:05:48;;;;;;;25.90;6.22;;;19.50;60.10;;;;;;5053072;28;20441;-60
2023/12/23 09:08:14;;;;;;;13.35;3.95;;;19.50;59.90;;;;;;5053096;28;20048;-61
2023/12/23 09:10:40;;;;;;;9.73;3.05;;;19.30;56.50;;;;;;5052737;28;20032;-61
2023/12/23 09:13:06;;;;;;;8.40;2.50;;;19.10;50.50;;;;;;5053125;28;20381;-61
2023/12/23 09:15:33;;;;;;;7.55;2.25;;;18.90;48.30;;;;;;5052820;28;20075;-57
2023/12/23 09:17:58;;;;;;;14.88;4.22;;;18.70;46.70;;;;;;5052796;28;20029;-61
2023/12/23 09:20:24;;;;;;;9.07;3.47;;;18.70;49.50;;;;;;5052459;28;20519;-60
2023/12/23 09:22:50;;;;;;;13.30;3.53;;;19.50;49.20;;;;;;5052839;28;20465;-60
2023/12/23 09:25:16;;;;;;;9.88;3.58;;;19.80;49.60;;;;;;5052646;28;20033;-61
2023/12/23 09:27:41;;;;;;;8.50;3.70;;;19.90;49.20;;;;;;5052613;28;20050;-61
2023/12/23 09:30:07;;;;;;;12.38;3.63;;;20.00;49.70;;;;;;5052308;28;20028;-60
2023/12/23 09:32:33;;;;;;;11.75;3.85;;;20.00;50.30;;;;;;5052520;28;20097;-61
2023/12/23 09:34:59;;;;;;;11.68;4.05;;;19.90;51.20;;;;;;5052442;28;20167;-63
2023/12/23 09:37:25;;;;;;;15.45;4.13;;;19.80;51.80;;;;;;5052498;28;20028;-61
2023/12/23 09:39:51;;;;;;;13.50;4.13;;;19.60;53.70;;;;;;5052166;28;20055;-61
2023/12/23 09:42:17;;;;;;;16.42;4.45;;;19.60;55.70;;;;;;5052240;28;20029;-60
2023/12/23 09:44:43;;;;;;;19.33;5.20;;;19.60;57.70;;;;;;5052308;28;20047;-61
2023/12/23 09:47:09;;;;;;;17.08;5.13;;;19.50;58.70;;;;;;5034551;28;20025;-61
2023/12/23 09:49:36;;;;;;;19.52;4.80;;;19.50;59.80;;;;;;5051964;28;20104;-61
2023/12/23 09:52:02;;;;;;;20.23;6.00;;;19.50;59.10;;;;;;5052320;28;20044;-61
2023/12/23 09:54:35;;;;;;;19.35;4.47;;;19.50;59.10;;;;;;5052346;28;20036;-61
2023/12/23 09:57:01;;;;;;;14.93;5.05;;;19.50;58.70;;;;;;5052122;28;20040;-61
2023/12/23 09:59:27;;;;;;;16.48;3.80;;;19.40;58.80;;;;;;5051945;28;20552;-61
2023/12/23 10:01:54;;;;;;;16.10;3.92;;;19.10;55.50;;;;;;5050930;28;20496;-61
